createdAt,value
2017-10-06T00:01:03.455Z,98.70
2017-10-06T00:03:32.742Z,98.40
2017-10-06T00:06:02.031Z,98.00
2017-10-06T00:08:31.323Z,97.80
2017-10-06T00:11:01.330Z,97.40
2017-10-06T00:13:30.575Z,97.40
2017-10-06T00:15:59.840Z,97.30
2017-10-06T00:18:29.915Z,97.10
2017-10-06T00:20:59.323Z,97.00
2017-10-06T00:23:28.619Z,97.10
2017-10-06T00:25:57.878Z,97.10
2017-10-06T00:28:27.110Z,97.00
2017-10-06T00:30:56.350Z,97.10
2017-10-06T00:33:25.763Z,97.20
2017-10-06T00:35:55.764Z,97.60
2017-10-06T00:38:25.013Z,97.30
2017-10-06T00:40:54.412Z,97.30
2017-10-06T00:43:23.778Z,97.20
2017-10-06T00:45:53.023Z,97.20
2017-10-06T00:48:22.293Z,97.20
2017-10-06T00:50:51.551Z,97.20
2017-10-06T00:53:20.799Z,97.10
2017-10-06T00:55:50.172Z,97.10
2017-10-06T00:58:20.219Z,97.10
2017-10-06T01:00:49.502Z,97.20
2017-10-06T01:03:19.620Z,97.90
2017-10-06T01:05:48.943Z,97.70
2017-10-06T01:08:18.963Z,97.80
2017-10-06T01:10:48.210Z,98.10
2017-10-06T01:13:17.867Z,97.80
2017-10-06T01:15:47.897Z,97.70
2017-10-06T01:18:17.175Z,97.70
2017-10-06T01:20:46.410Z,97.70
2017-10-06T01:23:15.705Z,97.80
2017-10-06T01:25:45.967Z,97.40
2017-10-06T01:28:15.203Z,97.40
2017-10-06T01:30:44.449Z,97.30
2017-10-06T01:33:13.711Z,97.30
2017-10-06T01:35:43.751Z,97.20
2017-10-06T01:38:13.007Z,97.20
2017-10-06T01:40:42.250Z,97.30
2017-10-06T01:43:11.510Z,97.70
2017-10-06T01:45:40.746Z,97.70
2017-10-06T01:48:10.115Z,97.60
2017-10-06T01:50:39.357Z,97.70
2017-10-06T01:53:08.615Z,97.60
2017-10-06T01:55:37.902Z,97.60
2017-10-06T01:58:07.149Z,97.60
2017-10-06T02:00:37.082Z,97.60
2017-10-06T02:03:06.542Z,97.70
2017-10-06T02:05:35.780Z,97.60
2017-10-06T02:08:05.023Z,97.80
2017-10-06T02:10:34.867Z,97.90
2017-10-06T02:13:04.967Z,98.30
2017-10-06T02:15:34.218Z,98.30
2017-10-06T02:18:03.478Z,98.40
2017-10-06T02:20:32.722Z,98.50
2017-10-06T02:23:01.991Z,98.70
2017-10-06T02:25:31.993Z,98.50
2017-10-06T02:28:01.398Z,98.40
2017-10-06T02:30:30.632Z,98.40
2017-10-06T02:32:59.867Z,98.30
2017-10-06T02:35:29.135Z,98.40
2017-10-06T02:37:58.362Z,98.40
2017-10-06T02:40:27.618Z,98.30
2017-10-06T02:42:56.866Z,98.40
2017-10-06T02:45:26.139Z,98.70
2017-10-06T02:47:55.415Z,98.50
2017-10-06T02:50:25.430Z,97.80
2017-10-06T02:52:54.661Z,97.70
2017-10-06T02:55:23.919Z,97.80
2017-10-06T02:57:53.154Z,97.80
2017-10-06T03:00:22.402Z,97.70
2017-10-06T03:02:51.654Z,97.60
2017-10-06T03:05:20.910Z,97.60
2017-10-06T03:07:50.462Z,97.50
2017-10-06T03:10:19.703Z,97.40
2017-10-06T03:12:48.966Z,97.70
2017-10-06T03:15:18.256Z,97.60
2017-10-06T03:17:47.562Z,97.60
2017-10-06T03:20:16.854Z,97.60
2017-10-06T03:22:46.138Z,97.60
2017-10-06T03:25:15.376Z,97.50
2017-10-06T03:27:44.642Z,97.60
2017-10-06T03:30:14.649Z,97.70
2017-10-06T03:32:44.689Z,97.70
2017-10-06T03:35:14.716Z,97.70
2017-10-06T03:37:43.980Z,97.70
2017-10-06T03:40:13.234Z,97.90
2017-10-06T03:42:42.483Z,97.90
2017-10-06T03:45:11.751Z,97.90
2017-10-06T03:47:40.992Z,98.30
2017-10-06T03:50:10.236Z,98.40
2017-10-06T03:52:39.558Z,98.50
2017-10-06T03:55:08.855Z,98.50
2017-10-06T03:57:38.135Z,98.40
2017-10-06T04:00:07.404Z,98.30
2017-10-06T04:02:36.636Z,98.40
2017-10-06T04:05:05.946Z,98.20
2017-10-06T04:07:35.519Z,98.20
2017-10-06T04:10:05.545Z,98.00
2017-10-06T04:12:34.967Z,98.00
2017-10-06T04:15:04.212Z,98.30
2017-10-06T04:17:33.470Z,98.20
2017-10-06T04:20:02.727Z,98.30
2017-10-06T04:22:31.993Z,98.30
2017-10-06T04:25:01.234Z,98.30
2017-10-06T04:27:31.282Z,98.50
2017-10-06T04:30:00.555Z,98.50
2017-10-06T04:32:30.546Z,98.50
2017-10-06T04:34:59.832Z,98.50
2017-10-06T04:37:29.617Z,98.40
2017-10-06T04:39:58.883Z,98.50
2017-10-06T04:42:28.106Z,98.50
2017-10-06T04:44:57.386Z,98.60
2017-10-06T04:47:28.305Z,98.50
2017-10-06T04:49:57.558Z,98.60
2017-10-06T04:52:26.816Z,98.80
2017-10-06T04:54:56.051Z,98.80
2017-10-06T04:57:25.336Z,98.80
2017-10-06T04:59:54.588Z,98.90
2017-10-06T05:02:23.827Z,98.80
2017-10-06T05:04:53.910Z,98.60
2017-10-06T05:07:23.163Z,98.60
2017-10-06T05:09:52.416Z,98.60
2017-10-06T05:12:21.868Z,98.70
2017-10-06T05:14:52.008Z,98.80
2017-10-06T05:17:21.289Z,98.80
2017-10-06T05:19:52.680Z,99.00
2017-10-06T05:22:22.115Z,99.00
2017-10-06T05:24:51.384Z,98.80
2017-10-06T05:27:20.629Z,98.90
2017-10-06T05:29:51.064Z,98.60
2017-10-06T05:32:21.080Z,99.00
2017-10-06T05:34:50.369Z,99.00
2017-10-06T05:37:19.792Z,99.00
2017-10-06T05:39:49.897Z,99.10
2017-10-06T05:42:20.033Z,99.30
2017-10-06T05:44:49.306Z,99.50
2017-10-06T05:47:18.586Z,99.70
2017-10-06T05:49:47.839Z,99.90
2017-10-06T05:52:17.087Z,99.90
2017-10-06T05:54:46.361Z,99.70
2017-10-06T05:57:15.618Z,99.40
2017-10-06T05:59:44.871Z,99.30
2017-10-06T06:02:14.127Z,99.50
2017-10-06T06:04:43.398Z,99.70
2017-10-06T06:07:12.674Z,99.70
2017-10-06T06:09:42.074Z,99.60
2017-10-06T06:12:11.364Z,99.40
2017-10-06T06:14:40.750Z,99.10
2017-10-06T06:17:10.016Z,99.40
2017-10-06T06:19:39.257Z,99.20
2017-10-06T06:22:08.509Z,98.80
2017-10-06T06:24:37.754Z,98.80
2017-10-06T06:27:07.870Z,98.00
2017-10-06T06:29:37.894Z,98.40
2017-10-06T06:32:07.156Z,98.40
2017-10-06T06:34:36.435Z,98.70
2017-10-06T06:37:06.475Z,97.70
2017-10-06T06:39:36.362Z,97.50
2017-10-06T06:42:05.627Z,97.20
2017-10-06T06:44:34.874Z,97.80
2017-10-06T06:47:04.272Z,97.70
2017-10-06T06:49:34.134Z,97.30
2017-10-06T06:52:04.136Z,98.00
2017-10-06T06:54:34.180Z,97.40
2017-10-06T06:57:03.413Z,97.40
2017-10-06T06:59:32.675Z,97.70
2017-10-06T07:02:02.914Z,97.10
2017-10-06T07:04:32.176Z,97.10
2017-10-06T07:07:01.443Z,96.30
2017-10-06T07:09:30.722Z,97.10
2017-10-06T07:12:00.004Z,96.30
2017-10-06T07:14:30.034Z,96.70
2017-10-06T07:16:59.298Z,96.60
2017-10-06T07:19:28.563Z,97.00
2017-10-06T07:21:57.837Z,97.10
2017-10-06T07:24:27.103Z,97.30
2017-10-06T07:26:56.354Z,96.20
2017-10-06T07:29:25.786Z,93.90
2017-10-06T07:31:55.129Z,92.70
2017-10-06T07:34:24.398Z,91.90
2017-10-06T07:36:53.671Z,92.10
2017-10-06T07:39:22.938Z,92.10
2017-10-06T07:41:52.982Z,92.10
2017-10-06T07:44:23.130Z,92.10
2017-10-06T07:46:52.398Z,92.40
2017-10-06T07:49:21.658Z,92.50
2017-10-06T07:51:51.511Z,92.40
2017-10-06T07:54:20.950Z,92.60
2017-10-06T07:56:50.174Z,92.10
2017-10-06T07:59:19.463Z,92.40
2017-10-06T08:01:49.538Z,92.10
2017-10-06T08:04:19.604Z,91.70
2017-10-06T08:06:48.851Z,91.70
2017-10-06T08:09:18.199Z,91.50
2017-10-06T08:11:47.480Z,91.60
2017-10-06T08:14:16.734Z,91.70
2017-10-06T08:16:46.003Z,91.80
2017-10-06T08:19:15.275Z,91.90
2017-10-06T08:21:44.731Z,91.90
2017-10-06T08:24:14.899Z,92.20
2017-10-06T08:26:44.175Z,91.70
2017-10-06T08:29:13.756Z,91.40
2017-10-06T08:31:43.007Z,91.20
2017-10-06T08:34:13.102Z,90.60
2017-10-06T08:36:43.178Z,87.50
2017-10-06T08:39:12.464Z,87.50
2017-10-06T08:41:42.216Z,86.40
2017-10-06T08:44:11.480Z,85.80
2017-10-06T08:46:40.735Z,86.40
2017-10-06T08:49:10.059Z,87.40
2017-10-06T08:51:39.343Z,82.00
2017-10-06T08:54:08.591Z,78.40
2017-10-06T08:56:38.915Z,63.90
2017-10-06T08:59:08.930Z,58.50
2017-10-06T09:01:38.336Z,58.40
2017-10-06T09:04:08.998Z,50.30
2017-10-06T09:06:39.022Z,50.20
2017-10-06T09:09:08.284Z,46.70
2017-10-06T09:11:38.286Z,48.20
2017-10-06T09:14:07.547Z,48.20
2017-10-06T09:16:37.031Z,46.70
2017-10-06T09:19:06.366Z,47.90
2017-10-06T09:21:35.669Z,49.90
2017-10-06T09:24:04.938Z,54.60
2017-10-06T09:26:34.264Z,55.10
2017-10-06T09:29:03.554Z,56.60
2017-10-06T09:31:32.827Z,58.70
2017-10-06T09:34:02.366Z,63.50
2017-10-06T09:36:31.638Z,56.80
2017-10-06T09:39:00.931Z,56.20
2017-10-06T09:41:30.223Z,55.30
2017-10-06T09:44:00.240Z,53.30
2017-10-06T09:46:29.507Z,53.30
2017-10-06T09:48:58.759Z,53.20
2017-10-06T09:51:28.022Z,50.70
2017-10-06T09:53:57.277Z,47.20
2017-10-06T09:56:26.526Z,48.40
2017-10-06T09:58:55.779Z,50.20
2017-10-06T10:01:25.068Z,51.00
2017-10-06T10:03:54.337Z,55.70
2017-10-06T10:06:24.385Z,62.60
2017-10-06T10:08:53.716Z,62.60
2017-10-06T10:11:22.965Z,67.60
2017-10-06T10:13:52.411Z,71.70
2017-10-06T10:16:21.662Z,73.70
2017-10-06T10:18:51.699Z,74.60
2017-10-06T10:21:20.958Z,74.60
2017-10-06T10:23:50.378Z,76.10
2017-10-06T10:26:20.627Z,74.80
2017-10-06T10:28:49.892Z,74.70
2017-10-06T10:31:20.708Z,70.60
2017-10-06T10:33:49.985Z,70.50
2017-10-06T10:36:19.235Z,67.50
2017-10-06T10:38:49.288Z,66.90
2017-10-06T10:41:18.554Z,66.80
2017-10-06T10:43:47.881Z,57.90
2017-10-06T10:46:17.926Z,51.20
2017-10-06T10:48:47.291Z,51.30
2017-10-06T10:51:16.698Z,51.20
2017-10-06T10:53:46.736Z,49.30
2017-10-06T10:56:16.018Z,49.20
2017-10-06T10:58:46.595Z,48.60
2017-10-06T11:01:15.864Z,48.50
2017-10-06T11:03:45.147Z,51.70
2017-10-06T11:06:14.405Z,53.00
2017-10-06T11:08:43.676Z,54.40
2017-10-06T11:11:12.965Z,56.40
2017-10-06T11:13:42.363Z,58.80
2017-10-06T11:16:11.634Z,61.20
2017-10-06T11:18:41.011Z,62.40
2017-10-06T11:21:10.293Z,66.70
2017-10-06T11:23:39.565Z,61.20
2017-10-06T11:26:09.599Z,63.90
2017-10-06T11:28:38.999Z,63.70
2017-10-06T11:31:08.312Z,63.80
2017-10-06T11:33:37.578Z,63.70
2017-10-06T11:36:07.617Z,68.60
2017-10-06T11:38:39.523Z,68.40
2017-10-06T11:41:09.678Z,69.50
2017-10-06T11:43:39.148Z,69.50
2017-10-06T11:46:08.426Z,70.40
2017-10-06T11:48:37.735Z,71.80
2017-10-06T11:51:07.004Z,75.10
2017-10-06T11:53:36.436Z,81.00
2017-10-06T11:56:06.489Z,80.90
2017-10-06T11:58:35.750Z,80.80
2017-10-06T12:01:05.194Z,80.70
2017-10-06T12:03:34.476Z,82.30
2017-10-06T12:06:03.727Z,83.40
2017-10-06T12:08:33.011Z,84.20
2017-10-06T12:11:02.312Z,87.50
2017-10-06T12:13:31.554Z,87.50
2017-10-06T12:16:00.821Z,90.80
2017-10-06T12:18:30.843Z,88.40
2017-10-06T12:21:00.111Z,88.40
2017-10-06T12:23:29.366Z,89.80
2017-10-06T12:25:58.663Z,88.50
2017-10-06T12:28:27.953Z,90.00
2017-10-06T12:30:57.216Z,86.60
2017-10-06T12:33:26.679Z,86.70
2017-10-06T12:35:55.942Z,83.40
2017-10-06T12:38:25.322Z,85.50
2017-10-06T12:40:54.590Z,84.60
2017-10-06T12:43:23.839Z,80.40
2017-10-06T12:45:53.090Z,80.40
2017-10-06T12:48:22.391Z,82.40
2017-10-06T12:50:51.675Z,81.50
2017-10-06T12:53:20.951Z,78.40
2017-10-06T12:55:51.075Z,80.20
2017-10-06T12:58:20.535Z,80.20
2017-10-06T13:00:49.850Z,80.40
2017-10-06T13:03:19.113Z,79.50
2017-10-06T13:05:48.430Z,81.20
2017-10-06T13:08:17.680Z,81.70
2017-10-06T13:10:47.102Z,82.50
2017-10-06T13:13:16.517Z,81.10
2017-10-06T13:15:46.649Z,81.80
2017-10-06T13:18:15.940Z,81.80
2017-10-06T13:20:45.956Z,83.90
2017-10-06T13:23:15.227Z,83.80
2017-10-06T13:25:44.483Z,82.70
2017-10-06T13:28:13.767Z,82.00
2017-10-06T13:30:43.893Z,79.40
2017-10-06T13:33:13.188Z,79.40
2017-10-06T13:35:43.210Z,76.00
2017-10-06T13:38:12.616Z,76.00
2017-10-06T13:40:42.074Z,77.60
2017-10-06T13:43:11.374Z,76.60
2017-10-06T13:45:40.620Z,76.00
2017-10-06T13:48:09.882Z,76.40
2017-10-06T13:50:39.347Z,77.40
2017-10-06T13:53:08.645Z,79.30
2017-10-06T13:55:38.127Z,79.80
2017-10-06T13:58:08.152Z,82.20
2017-10-06T14:00:37.422Z,82.20
2017-10-06T14:03:06.712Z,83.20
2017-10-06T14:05:36.000Z,81.40
2017-10-06T14:08:05.249Z,81.00
2017-10-06T14:10:34.748Z,81.10
2017-10-06T14:13:04.794Z,81.10
2017-10-06T14:15:34.074Z,81.10
2017-10-06T14:18:03.339Z,81.50
2017-10-06T14:20:34.170Z,83.20
2017-10-06T14:23:03.441Z,83.30
2017-10-06T14:25:32.701Z,81.90
2017-10-06T14:28:02.111Z,80.80
2017-10-06T14:30:32.171Z,82.70
2017-10-06T14:33:01.527Z,82.70
2017-10-06T14:35:31.539Z,82.80
2017-10-06T14:38:00.807Z,82.70
2017-10-06T14:40:30.255Z,83.00
2017-10-06T14:43:00.296Z,83.60
2017-10-06T14:45:29.557Z,83.60
2017-10-06T14:47:58.974Z,84.30
2017-10-06T14:50:29.022Z,84.40
2017-10-06T14:52:58.991Z,84.30
2017-10-06T14:55:28.272Z,84.60
2017-10-06T14:57:57.535Z,84.90
2017-10-06T15:00:26.841Z,87.40
2017-10-06T15:02:56.312Z,84.60
2017-10-06T15:05:25.618Z,85.20
2017-10-06T15:07:54.918Z,89.50
2017-10-06T15:10:24.325Z,85.60
2017-10-06T15:12:54.450Z,85.40
2017-10-06T15:15:23.765Z,85.40
2017-10-06T15:17:53.038Z,83.40
2017-10-06T15:20:22.296Z,85.10
2017-10-06T15:22:51.547Z,84.80
2017-10-06T15:25:20.822Z,86.20
2017-10-06T15:27:50.073Z,84.10
2017-10-06T15:30:19.319Z,83.60
2017-10-06T15:32:48.619Z,84.80
2017-10-06T15:35:17.974Z,85.90
2017-10-06T15:37:47.269Z,87.80
2017-10-06T15:40:17.274Z,86.10
2017-10-06T15:42:46.586Z,86.30
2017-10-06T15:45:15.836Z,87.20
2017-10-06T15:47:45.192Z,86.90
2017-10-06T15:50:14.444Z,90.40
2017-10-06T15:52:44.112Z,88.60
2017-10-06T15:55:13.378Z,88.10
2017-10-06T15:57:42.720Z,91.00
2017-10-06T16:00:12.162Z,92.70
2017-10-06T16:02:41.542Z,93.00
2017-10-06T16:05:10.847Z,90.50
2017-10-06T16:07:40.127Z,90.50
2017-10-06T16:10:09.498Z,91.00
2017-10-06T16:12:38.797Z,94.00
2017-10-06T16:15:08.064Z,90.30
2017-10-06T16:17:37.336Z,92.40
2017-10-06T16:20:06.586Z,90.30
2017-10-06T16:22:36.543Z,88.70
2017-10-06T16:25:05.932Z,87.90
2017-10-06T16:27:35.211Z,86.70
2017-10-06T16:30:04.531Z,86.50
2017-10-06T16:32:33.866Z,85.50
2017-10-06T16:35:03.104Z,91.70
2017-10-06T16:37:32.363Z,88.10
2017-10-06T16:40:01.644Z,88.20
2017-10-06T16:42:31.047Z,90.70
2017-10-06T16:45:00.314Z,91.00
2017-10-06T16:47:30.259Z,90.90
2017-10-06T16:49:59.553Z,91.50
2017-10-06T16:52:30.408Z,91.10
2017-10-06T16:55:00.510Z,90.50
2017-10-06T16:57:30.534Z,92.20
2017-10-06T16:59:59.807Z,92.20
2017-10-06T17:02:29.905Z,93.80
2017-10-06T17:04:59.330Z,93.80
2017-10-06T17:07:29.148Z,93.60
2017-10-06T17:09:58.862Z,94.60
2017-10-06T17:12:28.137Z,94.30
2017-10-06T17:14:57.408Z,93.70
2017-10-06T17:17:27.524Z,94.10
2017-10-06T17:19:57.564Z,92.80
2017-10-06T17:22:26.820Z,92.70
2017-10-06T17:24:56.107Z,94.20
2017-10-06T17:27:25.347Z,93.40
2017-10-06T17:29:54.839Z,94.10
2017-10-06T17:32:24.883Z,94.70
2017-10-06T17:34:54.138Z,94.70
2017-10-06T17:37:23.414Z,92.90
2017-10-06T17:39:52.678Z,93.20
2017-10-06T17:42:21.970Z,92.00
2017-10-06T17:44:52.298Z,92.90
2017-10-06T17:47:22.332Z,92.70
2017-10-06T17:49:51.833Z,92.70
2017-10-06T17:52:21.217Z,93.00
2017-10-06T17:54:51.259Z,92.80
2017-10-06T17:57:20.628Z,92.80
2017-10-06T17:59:49.963Z,93.20
2017-10-06T18:02:19.271Z,93.20
2017-10-06T18:04:49.395Z,93.50
2017-10-06T18:07:18.682Z,93.50
2017-10-06T18:09:47.979Z,93.70
2017-10-06T18:12:17.469Z,93.30
2017-10-06T18:14:47.511Z,93.60
2017-10-06T18:17:16.763Z,93.60
2017-10-06T18:19:46.027Z,93.70
2017-10-06T18:22:16.067Z,93.90
2017-10-06T18:24:45.307Z,93.90
2017-10-06T18:27:14.570Z,94.10
2017-10-06T18:29:43.913Z,94.20
2017-10-06T18:32:16.088Z,94.40
2017-10-06T18:34:45.376Z,95.00
2017-10-06T18:37:14.639Z,95.00
2017-10-06T18:39:44.620Z,95.10
2017-10-06T18:42:16.039Z,95.50
2017-10-06T18:44:46.303Z,95.50
2017-10-06T18:47:16.371Z,95.40
2017-10-06T18:49:46.053Z,95.90
2017-10-06T18:52:15.360Z,96.10
2017-10-06T18:54:44.607Z,95.90
2017-10-06T18:57:14.776Z,95.70
2017-10-06T18:59:44.029Z,95.70
2017-10-06T19:02:13.264Z,95.80
2017-10-06T19:04:42.523Z,95.90
2017-10-06T19:07:11.783Z,95.90
2017-10-06T19:09:41.935Z,96.00
2017-10-06T19:12:11.204Z,96.20
2017-10-06T19:14:40.457Z,96.40
2017-10-06T19:17:09.752Z,96.50
2017-10-06T19:19:39.018Z,96.50
2017-10-06T19:22:08.349Z,96.60
2017-10-06T19:24:38.358Z,97.10
2017-10-06T19:27:07.603Z,97.10
2017-10-06T19:29:36.858Z,97.00
2017-10-06T19:32:07.832Z,96.90
2017-10-06T19:34:37.167Z,96.80
2017-10-06T19:37:06.436Z,96.80
2017-10-06T19:39:35.726Z,96.90
2017-10-06T19:42:05.004Z,97.20
2017-10-06T19:44:34.263Z,97.20
2017-10-06T19:47:03.603Z,97.10
2017-10-06T19:49:32.891Z,97.00
2017-10-06T19:52:02.800Z,97.00
2017-10-06T19:54:33.205Z,96.80
2017-10-06T19:57:02.538Z,96.70
2017-10-06T19:59:32.584Z,96.70
2017-10-06T20:02:01.983Z,96.60
2017-10-06T20:04:31.228Z,96.50
2017-10-06T20:07:00.553Z,96.50
2017-10-06T20:09:29.828Z,96.30
2017-10-06T20:12:02.111Z,96.20
2017-10-06T20:14:31.567Z,96.10
2017-10-06T20:17:00.896Z,96.00
2017-10-06T20:19:30.150Z,95.80
2017-10-06T20:21:59.427Z,95.90
2017-10-06T20:24:28.690Z,95.80
2017-10-06T20:26:57.998Z,95.90
2017-10-06T20:29:27.280Z,95.90
2017-10-06T20:31:56.572Z,95.90
2017-10-06T20:34:26.709Z,95.80
2017-10-06T20:36:55.975Z,95.80
2017-10-06T20:39:26.002Z,95.80
2017-10-06T20:41:55.411Z,95.80
2017-10-06T20:44:24.763Z,95.70
2017-10-06T20:46:54.046Z,95.90
2017-10-06T20:49:23.287Z,95.70
2017-10-06T20:51:54.473Z,95.60
2017-10-06T20:54:23.746Z,95.40
2017-10-06T20:56:53.040Z,95.50
2017-10-06T20:59:22.448Z,95.50
2017-10-06T21:01:51.702Z,95.50
2017-10-06T21:04:21.042Z,95.30
2017-10-06T21:06:51.300Z,95.40
2017-10-06T21:09:20.571Z,95.40
2017-10-06T21:11:49.904Z,95.70
2017-10-06T21:14:19.162Z,95.70
2017-10-06T21:16:48.411Z,96.00
2017-10-06T21:19:18.202Z,95.90
2017-10-06T21:21:47.459Z,95.70
2017-10-06T21:24:16.735Z,95.80
2017-10-06T21:26:45.999Z,95.70
2017-10-06T21:29:15.261Z,95.60
2017-10-06T21:31:44.536Z,95.30
2017-10-06T21:34:13.840Z,95.30
2017-10-06T21:36:43.859Z,95.10
2017-10-06T21:39:13.270Z,95.10
2017-10-06T21:41:43.318Z,94.20
2017-10-06T21:44:12.745Z,94.20
2017-10-06T21:46:42.029Z,94.00
2017-10-06T21:49:11.282Z,94.10
2017-10-06T21:51:41.346Z,93.90
2017-10-06T21:54:10.615Z,93.90
2017-10-06T21:56:39.884Z,93.50
2017-10-06T21:59:09.140Z,93.70
2017-10-06T22:01:38.416Z,93.30
2017-10-06T22:04:07.896Z,93.30
2017-10-06T22:06:37.143Z,93.10
2017-10-06T22:09:06.531Z,93.60
2017-10-06T22:11:36.564Z,93.20
2017-10-06T22:14:05.857Z,93.20
2017-10-06T22:16:35.137Z,93.00
2017-10-06T22:19:04.461Z,93.20
2017-10-06T22:21:33.779Z,93.00
2017-10-06T22:24:03.076Z,92.90
2017-10-06T22:26:32.383Z,93.20
2017-10-06T22:29:01.643Z,93.00
2017-10-06T22:31:30.923Z,92.70
2017-10-06T22:34:00.345Z,92.60
2017-10-06T22:36:29.632Z,92.30
2017-10-06T22:38:58.918Z,92.50
2017-10-06T22:41:28.198Z,92.00
2017-10-06T22:43:57.454Z,92.50
2017-10-06T22:46:26.753Z,92.30
2017-10-06T22:48:56.022Z,92.50
2017-10-06T22:51:25.325Z,92.10
2017-10-06T22:53:54.591Z,92.30
2017-10-06T22:56:24.062Z,92.70
2017-10-06T22:58:53.366Z,92.60
2017-10-06T23:01:22.628Z,92.70
2017-10-06T23:03:51.994Z,92.80
2017-10-06T23:06:22.014Z,92.50
2017-10-06T23:08:51.300Z,92.50
2017-10-06T23:11:20.615Z,92.80
2017-10-06T23:13:49.834Z,91.90
2017-10-06T23:16:19.117Z,91.50
2017-10-06T23:18:48.419Z,91.40
2017-10-06T23:21:17.696Z,91.50
2017-10-06T23:23:47.721Z,91.80
2017-10-06T23:26:17.000Z,91.80
2017-10-06T23:28:46.302Z,91.40
2017-10-06T23:31:15.590Z,91.70
2017-10-06T23:33:44.883Z,92.60
2017-10-06T23:36:14.140Z,92.70
2017-10-06T23:38:43.511Z,92.00
2017-10-06T23:41:12.795Z,91.80
2017-10-06T23:43:42.062Z,92.20
2017-10-06T23:46:11.365Z,93.00
2017-10-06T23:48:41.384Z,92.10
2017-10-06T23:51:10.666Z,92.10
2017-10-06T23:53:39.967Z,91.80
2017-10-06T23:56:09.250Z,91.90
2017-10-06T23:58:39.271Z,92.90
